createdAt,value
2022-09-17T00:01:44.602Z,97655.26
2022-09-17T00:04:13.666Z,97652.31
2022-09-17T00:06:42.136Z,97655.41
2022-09-17T00:09:11.213Z,97659.45
2022-09-17T00:11:42.638Z,97659.69
2022-09-17T00:14:17.026Z,97665.63
2022-09-17T00:16:49.823Z,97665.67
2022-09-17T00:19:21.388Z,97669.30
2022-09-17T00:21:51.283Z,97666.50
2022-09-17T00:24:21.148Z,97671.88
2022-09-17T00:26:50.728Z,97672.39
2022-09-17T00:29:19.811Z,97671.04
2022-09-17T00:31:48.432Z,97670.61
2022-09-17T00:34:17.413Z,97673.75
2022-09-17T00:36:46.411Z,97672.52
2022-09-17T00:39:16.564Z,97676.34
2022-09-17T00:41:45.133Z,97673.24
2022-09-17T00:44:40.419Z,97672.60
2022-09-17T00:47:15.948Z,97680.96
2022-09-17T00:49:46.313Z,97682.87
2022-09-17T00:52:20.598Z,97690.51
2022-09-17T00:54:57.097Z,97688.10
2022-09-17T00:57:26.869Z,97683.93
2022-09-17T00:59:56.523Z,97680.65
2022-09-17T01:02:26.140Z,97675.65
2022-09-17T01:04:54.896Z,97676.23
2022-09-17T01:07:29.432Z,97677.84
2022-09-17T01:10:19.414Z,97674.56
2022-09-17T01:12:57.702Z,97676.98
2022-09-17T01:15:42.156Z,97668.81
2022-09-17T01:18:23.379Z,97662.73
2022-09-17T01:21:29.385Z,97664.80
2022-09-17T01:24:13.134Z,97661.35
2022-09-17T01:27:03.527Z,97660.00
2022-09-17T01:29:35.197Z,97656.19
2022-09-17T01:32:13.163Z,97649.42
2022-09-17T01:35:02.239Z,97643.17
2022-09-17T01:37:37.126Z,97634.65
2022-09-17T01:40:25.214Z,97632.18
2022-09-17T01:43:05.007Z,97630.08
2022-09-17T01:45:52.615Z,97629.73
2022-09-17T01:48:27.945Z,97635.11
2022-09-17T01:51:06.738Z,97636.35
2022-09-17T01:53:44.597Z,97640.98
2022-09-17T01:56:18.201Z,97646.08
2022-09-17T01:58:54.498Z,97650.08
2022-09-17T02:01:25.832Z,97654.38
2022-09-17T02:04:02.772Z,97646.89
2022-09-17T02:06:37.303Z,97647.52
2022-09-17T02:09:17.825Z,97646.63
2022-09-17T02:11:59.650Z,97647.33
2022-09-17T02:14:36.051Z,97645.79
2022-09-17T02:17:21.268Z,97645.63
2022-09-17T02:19:50.546Z,97632.30
2022-09-17T02:22:31.981Z,97635.46
2022-09-17T02:25:11.803Z,97634.98
2022-09-17T02:27:47.796Z,97631.76
2022-09-17T02:30:17.367Z,97635.06
2022-09-17T02:32:46.774Z,97639.41
2022-09-17T02:35:17.549Z,97641.15
2022-09-17T02:37:46.312Z,97642.34
2022-09-17T02:40:18.431Z,97642.15
2022-09-17T02:43:21.228Z,97646.82
2022-09-17T02:46:00.786Z,97644.19
2022-09-17T02:49:00.537Z,97643.45
2022-09-17T02:52:10.348Z,97635.60
2022-09-17T02:54:57.609Z,97631.52
2022-09-17T02:57:57.969Z,97627.92
2022-09-17T03:00:28.835Z,97630.59
2022-09-17T03:03:26.654Z,97629.48
2022-09-17T03:05:57.009Z,97631.48
2022-09-17T03:08:43.500Z,97628.65
2022-09-17T03:11:13.826Z,97626.38
2022-09-17T03:13:42.599Z,97627.52
2022-09-17T03:16:11.239Z,97624.03
2022-09-17T03:18:40.362Z,97620.37
2022-09-17T03:21:09.698Z,97618.28
2022-09-17T03:23:38.233Z,97621.89
2022-09-17T03:26:07.367Z,97620.64
2022-09-17T03:28:36.189Z,97623.14
2022-09-17T03:31:06.110Z,97631.03
2022-09-17T03:33:35.576Z,97636.04
2022-09-17T03:36:04.385Z,97633.76
2022-09-17T03:38:36.847Z,97632.70
2022-09-17T03:41:10.110Z,97632.69
2022-09-17T03:43:40.349Z,97635.13
2022-09-17T03:46:08.848Z,97635.32
2022-09-17T03:48:46.130Z,97637.20
2022-09-17T03:51:14.972Z,97637.86
2022-09-17T03:53:43.773Z,97635.36
2022-09-17T03:56:12.460Z,97637.56
2022-09-17T03:58:40.952Z,97632.98
2022-09-17T04:01:09.875Z,97628.10
2022-09-17T04:03:38.772Z,97636.08
2022-09-17T04:06:07.416Z,97635.04
2022-09-17T04:08:36.991Z,97634.38
2022-09-17T04:11:06.360Z,97630.91
2022-09-17T04:13:34.949Z,97632.98
2022-09-17T04:16:04.742Z,97632.26
2022-09-17T04:18:34.274Z,97630.64
2022-09-17T04:21:03.008Z,97634.05
2022-09-17T04:23:31.568Z,97630.05
2022-09-17T04:26:00.411Z,97632.46
2022-09-17T04:28:29.196Z,97630.08
2022-09-17T04:30:58.162Z,97630.64
2022-09-17T04:33:27.201Z,97629.80
2022-09-17T04:35:56.447Z,97627.03
2022-09-17T04:38:25.047Z,97623.38
2022-09-17T04:40:55.216Z,97626.30
2022-09-17T04:43:24.010Z,97629.71
2022-09-17T04:45:52.637Z,97630.55
2022-09-17T04:48:21.525Z,97629.16
2022-09-17T04:50:50.125Z,97629.69
2022-09-17T04:53:19.164Z,97634.34
2022-09-17T04:55:48.044Z,97635.21
2022-09-17T04:58:16.929Z,97639.60
2022-09-17T05:00:45.493Z,97632.84
2022-09-17T05:03:14.394Z,97632.64
2022-09-17T05:05:43.504Z,97637.48
2022-09-17T05:08:12.139Z,97637.76
2022-09-17T05:10:41.097Z,97639.05
2022-09-17T05:13:10.276Z,97640.05
2022-09-17T05:15:39.474Z,97642.59
2022-09-17T05:18:08.563Z,97649.30
2022-09-17T05:20:37.137Z,97651.17
2022-09-17T05:23:06.139Z,97648.18
2022-09-17T05:25:34.952Z,97646.05
2022-09-17T05:28:03.581Z,97640.61
2022-09-17T05:30:32.717Z,97635.33
2022-09-17T05:33:03.839Z,97641.29
2022-09-17T05:35:33.448Z,97636.69
2022-09-17T05:38:05.893Z,97636.08
2022-09-17T05:40:34.586Z,97640.48
2022-09-17T05:43:08.276Z,97637.68
2022-09-17T05:45:38.730Z,97635.50
2022-09-17T05:48:14.874Z,97635.64
2022-09-17T05:50:43.378Z,97638.75
2022-09-17T05:53:13.507Z,97640.48
2022-09-17T05:55:43.767Z,97639.63
2022-09-17T05:58:17.845Z,97646.59
2022-09-17T06:00:48.247Z,97641.00
2022-09-17T06:03:19.267Z,97634.67
2022-09-17T06:05:59.190Z,97641.16
2022-09-17T06:08:28.636Z,97645.77
2022-09-17T06:11:02.115Z,97651.26
2022-09-17T06:13:32.123Z,97648.95
2022-09-17T06:16:02.169Z,97645.10
2022-09-17T06:18:31.902Z,97652.48
2022-09-17T06:21:03.541Z,97652.89
2022-09-17T06:23:36.079Z,97653.73
2022-09-17T06:26:06.597Z,97656.44
2022-09-17T06:28:41.465Z,97661.84
2022-09-17T06:31:14.027Z,97665.56
2022-09-17T06:33:42.928Z,97667.75
2022-09-17T06:36:14.630Z,97674.66
2022-09-17T06:38:45.884Z,97678.02
2022-09-17T06:41:15.441Z,97679.80
2022-09-17T06:43:44.177Z,97681.20
2022-09-17T06:46:13.295Z,97690.42
2022-09-17T06:48:42.113Z,97694.10
2022-09-17T06:51:11.565Z,97695.50
2022-09-17T06:53:41.025Z,97694.59
2022-09-17T06:56:10.436Z,97702.92
2022-09-17T06:58:42.484Z,97709.83
2022-09-17T07:01:12.696Z,97711.35
2022-09-17T07:03:44.282Z,97714.64
2022-09-17T07:06:13.064Z,97715.60
2022-09-17T07:08:42.218Z,97709.81
2022-09-17T07:11:11.659Z,97709.39
2022-09-17T07:13:40.105Z,97713.54
2022-09-17T07:16:10.646Z,97719.73
2022-09-17T07:18:40.804Z,97723.14
2022-09-17T07:21:10.904Z,97722.42
2022-09-17T07:23:39.476Z,97721.62
2022-09-17T07:26:14.292Z,97725.98
2022-09-17T07:28:44.302Z,97733.90
2022-09-17T07:31:16.335Z,97737.90
2022-09-17T07:33:46.323Z,97735.80
2022-09-17T07:36:18.277Z,97741.86
2022-09-17T07:38:47.583Z,97747.57
2022-09-17T07:41:18.063Z,97744.15
2022-09-17T07:43:46.590Z,97743.59
2022-09-17T07:46:18.341Z,97742.67
2022-09-17T07:48:48.423Z,97747.38
2022-09-17T07:51:25.813Z,97746.48
2022-09-17T07:53:56.564Z,97752.40
2022-09-17T07:56:27.100Z,97749.94
2022-09-17T07:58:56.221Z,97753.05
2022-09-17T08:01:25.051Z,97753.71
2022-09-17T08:03:54.881Z,97752.33
2022-09-17T08:06:31.340Z,97751.33
2022-09-17T08:09:03.681Z,97750.31
2022-09-17T08:14:25.669Z,97742.98
2022-09-17T08:16:57.899Z,97747.83
2022-09-17T08:19:29.057Z,97744.48
2022-09-17T08:21:58.077Z,97751.70
2022-09-17T08:24:26.722Z,97756.79
2022-09-17T08:26:55.500Z,97760.17
2022-09-17T08:29:24.052Z,97750.77
2022-09-17T08:31:52.559Z,97743.88
2022-09-17T08:34:21.712Z,97743.13
2022-09-17T08:36:50.208Z,97742.30
2022-09-17T08:39:18.793Z,97736.69
2022-09-17T08:42:05.854Z,97729.08
2022-09-17T08:44:41.859Z,97726.58
2022-09-17T08:47:29.909Z,97729.08
2022-09-17T08:50:01.516Z,97725.08
2022-09-17T08:52:45.589Z,97718.32
2022-09-17T08:55:23.864Z,97726.42
2022-09-17T08:58:12.971Z,97723.76
2022-09-17T09:01:16.905Z,97717.20
2022-09-17T09:04:25.906Z,97733.20
2022-09-17T09:07:02.592Z,97734.45
2022-09-17T09:09:38.532Z,97738.13
2022-09-17T09:12:15.160Z,97742.44
2022-09-17T09:15:06.662Z,97740.48
2022-09-17T09:17:47.388Z,97745.55
2022-09-17T09:20:20.503Z,97747.73
2022-09-17T09:22:52.316Z,97753.83
2022-09-17T09:25:31.670Z,97765.05
2022-09-17T09:28:30.321Z,97771.61
2022-09-17T09:31:05.049Z,97775.19
2022-09-17T09:33:38.237Z,97784.23
2022-09-17T09:36:22.542Z,97782.35
2022-09-17T09:38:54.124Z,97775.66
2022-09-17T09:41:46.871Z,97782.05
2022-09-17T09:44:17.281Z,97784.41
2022-09-17T09:47:10.917Z,97784.48
2022-09-17T09:50:17.554Z,97773.62
2022-09-17T09:53:08.352Z,97772.05
2022-09-17T09:55:44.061Z,97778.48
2022-09-17T09:58:32.207Z,97777.63
2022-09-17T10:01:01.266Z,97777.09
2022-09-17T10:03:33.588Z,97786.16
2022-09-17T10:06:03.925Z,97788.16
2022-09-17T10:08:36.685Z,97795.70
2022-09-17T10:11:11.653Z,97810.19
2022-09-17T10:13:41.271Z,97807.48
2022-09-17T10:16:19.110Z,97803.81
2022-09-17T10:18:49.931Z,97811.60
2022-09-17T10:21:31.541Z,97814.17
2022-09-17T10:24:03.304Z,97817.82
2022-09-17T10:26:35.753Z,97813.29
2022-09-17T10:29:12.476Z,97809.29
2022-09-17T10:31:51.240Z,97799.70
2022-09-17T10:34:25.268Z,97792.63
2022-09-17T10:36:58.711Z,97791.71
2022-09-17T10:39:27.918Z,97788.79
2022-09-17T10:42:00.383Z,97785.56
2022-09-17T10:44:35.087Z,97784.89
2022-09-17T10:47:18.481Z,97780.92
2022-09-17T10:49:57.088Z,97778.02
2022-09-17T10:52:44.305Z,97772.02
2022-09-17T10:55:34.032Z,97758.85
2022-09-17T10:58:10.131Z,97755.46
2022-09-17T11:01:00.293Z,97753.02
2022-09-17T11:03:29.380Z,97749.25
2022-09-17T11:06:18.297Z,97750.39
2022-09-17T11:09:16.508Z,97753.45
2022-09-17T11:12:01.739Z,97748.91
2022-09-17T11:14:59.452Z,97746.51
2022-09-17T11:18:06.127Z,97739.36
2022-09-17T11:20:59.501Z,97745.83
2022-09-17T11:23:52.378Z,97747.91
2022-09-17T11:26:45.250Z,97757.08
2022-09-17T11:29:41.994Z,97758.21
2022-09-17T11:32:44.727Z,97758.96
2022-09-17T11:35:18.111Z,97757.77
2022-09-17T11:37:59.103Z,97757.71
2022-09-17T11:40:40.522Z,97751.16
2022-09-17T11:43:18.697Z,97747.42
2022-09-17T11:45:56.561Z,97747.38
2022-09-17T11:48:35.866Z,97751.52
2022-09-17T11:51:13.156Z,97746.25
2022-09-17T11:53:48.222Z,97739.92
2022-09-17T11:56:49.341Z,97739.44
2022-09-17T11:59:31.674Z,97740.27
2022-09-17T12:02:21.325Z,97739.00
2022-09-17T12:05:10.501Z,97739.98
2022-09-17T12:08:14.931Z,97741.30
2022-09-17T12:10:47.096Z,97740.62
2022-09-17T12:13:45.809Z,97740.44
2022-09-17T12:16:25.848Z,97738.32
2022-09-17T12:19:06.185Z,97733.83
2022-09-17T12:21:34.919Z,97732.07
2022-09-17T12:24:13.476Z,97735.17
2022-09-17T12:26:54.134Z,97737.89
2022-09-17T12:29:40.253Z,97734.34
2022-09-17T12:32:48.376Z,97731.49
2022-09-17T12:36:10.074Z,97723.94
2022-09-17T12:38:51.639Z,97711.45
2022-09-17T12:41:44.377Z,97702.73
2022-09-17T12:44:24.877Z,97697.60
2022-09-17T12:47:06.702Z,97690.77
2022-09-17T12:49:44.633Z,97685.04
2022-09-17T12:52:47.301Z,97680.76
2022-09-17T12:55:36.525Z,97676.50
2022-09-17T12:58:44.579Z,97673.45
2022-09-17T13:01:31.874Z,97672.19
2022-09-17T13:04:38.348Z,97682.40
2022-09-17T13:07:18.247Z,97682.76
2022-09-17T13:10:24.288Z,97682.84
2022-09-17T13:12:58.411Z,97681.80
2022-09-17T13:15:39.905Z,97674.35
2022-09-17T13:18:30.880Z,97679.11
2022-09-17T13:21:18.422Z,97674.09
2022-09-17T13:23:49.760Z,97675.77
2022-09-17T13:26:21.968Z,97668.68
2022-09-17T13:28:52.505Z,97667.67
2022-09-17T13:31:45.184Z,97664.63
2022-09-17T13:34:19.507Z,97667.91
2022-09-17T13:36:55.929Z,97670.33
2022-09-17T13:39:41.062Z,97680.58
2022-09-17T13:42:15.727Z,97691.36
2022-09-17T13:45:13.335Z,97691.02
2022-09-17T13:47:55.427Z,97692.94
2022-09-17T13:50:39.211Z,97691.98
2022-09-17T13:53:22.017Z,97690.28
2022-09-17T13:56:00.903Z,97686.08
2022-09-17T13:58:36.214Z,97677.04
2022-09-17T14:01:15.002Z,97669.98
2022-09-17T14:03:49.180Z,97668.27
2022-09-17T14:06:19.143Z,97664.04
2022-09-17T14:08:58.744Z,97661.74
2022-09-17T14:11:28.904Z,97659.10
2022-09-17T14:14:03.908Z,97653.05
2022-09-17T14:16:37.709Z,97653.86
2022-09-17T14:19:25.518Z,97653.39
2022-09-17T14:22:06.988Z,97647.39
2022-09-17T14:24:43.806Z,97643.55
2022-09-17T14:27:42.697Z,97644.06
2022-09-17T14:30:20.879Z,97641.70
2022-09-17T14:32:49.680Z,97643.08
2022-09-17T14:35:29.448Z,97638.66
2022-09-17T14:38:03.861Z,97637.39
2022-09-17T14:40:35.281Z,97631.75
2022-09-17T14:43:04.148Z,97629.52
2022-09-17T14:45:43.209Z,97634.33
2022-09-17T14:48:38.017Z,97639.98
2022-09-17T14:51:19.055Z,97643.30
2022-09-17T14:53:50.256Z,97644.48
2022-09-17T14:56:23.218Z,97646.42
2022-09-17T14:58:54.985Z,97648.39
2022-09-17T15:01:31.612Z,97656.89
2022-09-17T15:04:18.330Z,97661.31
2022-09-17T15:06:47.101Z,97669.17
2022-09-17T15:09:17.464Z,97675.05
2022-09-17T15:11:50.480Z,97677.39
2022-09-17T15:14:40.108Z,97685.72
2022-09-17T15:17:16.412Z,97689.57
2022-09-17T15:19:50.487Z,97696.27
2022-09-17T15:22:33.257Z,97688.66
2022-09-17T15:25:14.102Z,97697.86
2022-09-17T15:27:46.688Z,97705.85
2022-09-17T15:30:20.663Z,97704.52
2022-09-17T15:33:00.659Z,97699.38
2022-09-17T15:35:31.161Z,97702.04
2022-09-17T15:40:54.543Z,97700.70
2022-09-17T15:43:28.281Z,97702.23
2022-09-17T15:45:58.672Z,97702.06
2022-09-17T15:48:34.526Z,97701.77
2022-09-17T15:51:07.206Z,97703.24
2022-09-17T15:53:37.494Z,97718.15
2022-09-17T15:56:09.833Z,97726.41
2022-09-17T15:58:54.896Z,97731.17
2022-09-17T16:01:29.593Z,97728.66
2022-09-17T16:04:22.647Z,97731.65
2022-09-17T16:06:58.685Z,97735.41
2022-09-17T16:09:42.808Z,97738.29
2022-09-17T16:12:14.300Z,97744.29
2022-09-17T16:14:51.131Z,97750.48
2022-09-17T16:17:22.889Z,97752.80
2022-09-17T16:19:52.290Z,97752.83
2022-09-17T16:22:21.390Z,97750.26
2022-09-17T16:24:49.911Z,97751.96
2022-09-17T16:27:25.517Z,97753.77
2022-09-17T16:30:01.139Z,97750.63
2022-09-17T16:32:30.797Z,97753.99
2022-09-17T16:34:59.960Z,97752.90
2022-09-17T16:37:29.112Z,97755.83
2022-09-17T16:39:58.124Z,97759.43
2022-09-17T16:42:26.754Z,97759.48
2022-09-17T16:44:55.624Z,97766.33
2022-09-17T16:47:24.350Z,97764.50
2022-09-17T16:49:52.856Z,97765.41
2022-09-17T16:52:21.763Z,97767.96
2022-09-17T16:54:50.596Z,97770.89
2022-09-17T16:57:19.025Z,97775.77
2022-09-17T16:59:47.816Z,97774.94
2022-09-17T17:02:19.636Z,97773.91
2022-09-17T17:04:59.703Z,97774.50
2022-09-17T17:07:48.914Z,97764.62
2022-09-17T17:10:36.975Z,97761.93
2022-09-17T17:13:21.668Z,97759.13
2022-09-17T17:16:04.092Z,97747.23
2022-09-17T17:18:51.249Z,97749.31
2022-09-17T17:21:34.591Z,97750.75
2022-09-17T17:24:16.276Z,97756.08
2022-09-17T17:26:57.598Z,97758.16
2022-09-17T17:29:39.621Z,97761.41
2022-09-17T17:32:20.647Z,97757.17
2022-09-17T17:35:02.577Z,97759.78
2022-09-17T17:37:45.969Z,97756.66
2022-09-17T17:40:28.564Z,97756.71
2022-09-17T17:43:11.957Z,97762.36
2022-09-17T17:45:54.710Z,97760.90
2022-09-17T17:48:37.451Z,97765.15
2022-09-17T17:51:18.707Z,97767.67
2022-09-17T17:53:59.109Z,97775.80
2022-09-17T17:56:40.130Z,97773.64
2022-09-17T17:59:24.412Z,97772.25
2022-09-17T18:02:05.427Z,97774.48
2022-09-17T18:04:46.533Z,97777.27
2022-09-17T18:07:29.646Z,97776.58
2022-09-17T18:10:12.823Z,97778.66
2022-09-17T18:12:55.127Z,97779.73
2022-09-17T18:15:35.148Z,97777.41
2022-09-17T18:18:18.981Z,97776.10
2022-09-17T18:21:04.336Z,97776.89
2022-09-17T18:23:48.717Z,97773.65
2022-09-17T18:26:33.399Z,97770.91
2022-09-17T18:29:15.597Z,97770.39
2022-09-17T18:31:53.677Z,97768.11
2022-09-17T18:34:35.288Z,97765.85
2022-09-17T18:37:19.498Z,97766.03
2022-09-17T18:40:01.767Z,97769.04
2022-09-17T18:42:45.683Z,97768.27
2022-09-17T18:45:29.161Z,97773.22
2022-09-17T18:48:11.730Z,97774.65
2022-09-17T18:51:08.037Z,97777.83
2022-09-17T18:53:52.553Z,97778.55
2022-09-17T18:56:43.284Z,97778.88
2022-09-17T18:59:22.857Z,97778.21
2022-09-17T19:02:03.981Z,97782.08
2022-09-17T19:04:48.286Z,97784.59
2022-09-17T19:07:31.659Z,97785.70
2022-09-17T19:10:17.864Z,97783.82
2022-09-17T19:13:01.106Z,97785.09
2022-09-17T19:15:45.560Z,97788.05
2022-09-17T19:18:28.570Z,97784.60
2022-09-17T19:21:15.724Z,97784.44
2022-09-17T19:24:00.769Z,97785.34
2022-09-17T19:26:41.249Z,97783.81
2022-09-17T19:29:21.639Z,97780.91
2022-09-17T19:32:02.382Z,97782.36
2022-09-17T19:34:48.725Z,97775.65
2022-09-17T19:37:32.315Z,97773.94
2022-09-17T19:40:21.140Z,97773.63
2022-09-17T19:43:02.390Z,97774.50
2022-09-17T19:45:49.235Z,97774.70
2022-09-17T19:48:31.319Z,97774.55
2022-09-17T19:51:13.811Z,97776.30
2022-09-17T19:53:57.337Z,97777.91
2022-09-17T19:56:40.434Z,97776.60
2022-09-17T19:59:23.414Z,97778.21
2022-09-17T20:02:04.127Z,97777.05
2022-09-17T20:04:47.566Z,97777.91
2022-09-17T20:07:30.862Z,97780.01
2022-09-17T20:10:16.032Z,97785.38
2022-09-17T20:12:56.262Z,97785.21
2022-09-17T20:15:39.938Z,97785.56
2022-09-17T20:18:23.734Z,97783.69
2022-09-17T20:21:17.568Z,97779.92
2022-09-17T20:24:02.197Z,97782.39
2022-09-17T20:26:43.118Z,97782.08
2022-09-17T20:29:23.560Z,97785.89
2022-09-17T20:32:04.143Z,97790.91
2022-09-17T20:34:44.893Z,97790.02
2022-09-17T20:38:01.671Z,97787.77
2022-09-17T20:40:30.814Z,97787.58
2022-09-17T20:43:14.515Z,97788.44
2022-09-17T20:46:04.183Z,97793.33
2022-09-17T20:48:45.733Z,97793.52
2022-09-17T20:51:31.507Z,97797.05
2022-09-17T20:54:16.145Z,97796.93
2022-09-17T20:56:59.378Z,97796.08
2022-09-17T21:00:01.029Z,97795.59
2022-09-17T21:02:47.910Z,97799.23
2022-09-17T21:05:32.266Z,97799.23
2022-09-17T21:08:14.655Z,97799.55
2022-09-17T21:10:56.937Z,97798.87
2022-09-17T21:13:40.249Z,97797.30
2022-09-17T21:16:25.090Z,97799.23
2022-09-17T21:19:11.912Z,97797.69
2022-09-17T21:21:58.843Z,97798.06
2022-09-17T21:24:39.633Z,97799.11
2022-09-17T21:27:22.483Z,97796.00
2022-09-17T21:30:06.481Z,97799.12
2022-09-17T21:32:49.822Z,97796.70
2022-09-17T21:35:37.080Z,97791.50
2022-09-17T21:38:21.915Z,97791.02
2022-09-17T21:41:11.529Z,97791.73
2022-09-17T21:43:53.140Z,97790.55
2022-09-17T21:46:42.302Z,97787.64
2022-09-17T21:49:23.690Z,97784.90
2022-09-17T21:52:07.790Z,97784.61
2022-09-17T21:54:48.241Z,97784.62
2022-09-17T21:57:32.253Z,97790.14
2022-09-17T22:00:17.312Z,97788.41
2022-09-17T22:03:04.035Z,97791.55
2022-09-17T22:05:47.608Z,97787.05
2022-09-17T22:08:31.285Z,97783.27
2022-09-17T22:11:18.622Z,97778.93
2022-09-17T22:14:20.841Z,97778.06
2022-09-17T22:17:04.339Z,97775.78
2022-09-17T22:19:48.077Z,97770.91
2022-09-17T22:22:28.376Z,97768.29
2022-09-17T22:25:12.463Z,97763.95
2022-09-17T22:28:20.616Z,97758.94
2022-09-17T22:31:14.554Z,97758.23
2022-09-17T22:34:05.603Z,97759.58
2022-09-17T22:36:49.704Z,97759.71
2022-09-17T22:39:32.287Z,97758.49
2022-09-17T22:42:16.784Z,97751.36
2022-09-17T22:44:57.107Z,97747.67
2022-09-17T22:47:44.445Z,97746.91
2022-09-17T22:50:25.168Z,97738.20
2022-09-17T22:53:06.962Z,97735.42
2022-09-17T22:55:48.065Z,97735.94
2022-09-17T22:58:33.435Z,97733.36
2022-09-17T23:01:22.698Z,97733.90
2022-09-17T23:04:12.128Z,97732.04
2022-09-17T23:06:54.463Z,97735.71
2022-09-17T23:09:40.488Z,97729.52
2022-09-17T23:12:25.220Z,97729.56
2022-09-17T23:15:13.822Z,97727.19
2022-09-17T23:17:54.474Z,97723.22
2022-09-17T23:20:42.929Z,97723.22
2022-09-17T23:23:24.718Z,97719.27
2022-09-17T23:26:29.901Z,97718.05
2022-09-17T23:29:11.966Z,97712.18
2022-09-17T23:31:58.582Z,97710.69
2022-09-17T23:34:42.016Z,97714.36
2022-09-17T23:37:29.829Z,97711.23
2022-09-17T23:40:12.912Z,97717.13
2022-09-17T23:43:00.006Z,97711.59
2022-09-17T23:45:41.961Z,97711.23
2022-09-17T23:48:25.463Z,97710.73
2022-09-17T23:51:07.396Z,97701.59
2022-09-17T23:53:52.168Z,97700.25
2022-09-17T23:56:34.176Z,97697.74
2022-09-17T23:59:19.777Z,97695.55
